createdAt,value
2022-11-26T00:01:44.304Z,21.90
2022-11-26T00:06:44.913Z,20.98
2022-11-26T00:11:43.994Z,19.05
2022-11-26T00:16:46.012Z,19.98
2022-11-26T00:21:44.906Z,20.85
2022-11-26T00:26:43.706Z,22.67
2022-11-26T00:31:42.531Z,19.48
2022-11-26T00:36:45.440Z,23.42
2022-11-26T00:41:47.416Z,18.30
2022-11-26T00:46:46.368Z,18.30
2022-11-26T00:51:47.702Z,21.05
2022-11-26T00:56:47.092Z,19.50
2022-11-26T01:01:45.976Z,21.63
2022-11-26T01:06:47.278Z,20.45
2022-11-26T01:11:50.872Z,19.95
2022-11-26T01:16:53.806Z,19.40
2022-11-26T01:21:54.093Z,21.38
2022-11-26T01:26:53.014Z,20.02
2022-11-26T01:31:51.885Z,22.63
2022-11-26T01:36:50.716Z,20.40
2022-11-26T01:42:00.176Z,22.05
2022-11-26T01:47:00.197Z,20.42
2022-11-26T01:52:06.397Z,24.35
2022-11-26T01:57:11.919Z,19.05
2022-11-26T02:02:11.516Z,24.23
2022-11-26T02:07:10.349Z,21.20
2022-11-26T02:12:10.729Z,21.42
2022-11-26T02:17:16.718Z,23.88
2022-11-26T02:22:30.653Z,20.50
2022-11-26T02:28:02.087Z,18.23
2022-11-26T02:33:06.829Z,18.40
2022-11-26T02:38:10.931Z,29.23
2022-11-26T02:43:09.908Z,29.95
2022-11-26T02:48:15.813Z,31.90
2022-11-26T02:53:16.949Z,37.35
2022-11-26T02:58:16.017Z,30.27
2022-11-26T03:03:24.005Z,33.42
2022-11-26T03:08:23.708Z,34.88
2022-11-26T03:13:22.559Z,35.28
2022-11-26T03:18:22.763Z,36.33
2022-11-26T03:23:21.568Z,33.03
2022-11-26T03:28:20.359Z,32.80
2022-11-26T03:33:19.260Z,30.20
2022-11-26T03:38:19.503Z,30.88
2022-11-26T03:43:18.256Z,29.40
2022-11-26T03:48:17.077Z,30.35
2022-11-26T03:53:15.791Z,33.90
2022-11-26T03:58:15.889Z,43.03
2022-11-26T04:03:14.718Z,40.38
2022-11-26T04:08:13.751Z,45.95
2022-11-26T04:13:15.114Z,41.05
2022-11-26T04:18:15.289Z,42.33
2022-11-26T04:23:14.100Z,39.58
2022-11-26T04:28:13.482Z,40.78
2022-11-26T04:33:12.564Z,42.20
2022-11-26T04:38:12.810Z,43.67
2022-11-26T04:43:11.676Z,40.22
2022-11-26T04:48:10.549Z,47.95
2022-11-26T04:53:09.285Z,41.72
2022-11-26T04:58:09.456Z,41.13
2022-11-26T05:03:08.447Z,45.03
2022-11-26T05:08:07.915Z,41.38
2022-11-26T05:13:06.719Z,40.10
2022-11-26T05:18:07.060Z,43.70
2022-11-26T05:23:05.950Z,37.97
2022-11-26T05:28:05.041Z,44.40
2022-11-26T05:33:03.892Z,40.00
2022-11-26T05:38:04.181Z,45.85
2022-11-26T05:43:02.971Z,43.42
2022-11-26T05:48:01.776Z,49.17
2022-11-26T05:53:00.800Z,49.78
2022-11-26T05:58:00.984Z,42.17
2022-11-26T06:02:59.820Z,46.28
2022-11-26T06:08:04.233Z,48.92
2022-11-26T06:13:06.845Z,43.53
2022-11-26T06:18:05.773Z,41.22
2022-11-26T06:23:05.417Z,34.97
2022-11-26T06:28:05.798Z,35.45
2022-11-26T06:33:06.254Z,42.88
2022-11-26T06:38:06.686Z,33.30
2022-11-26T06:43:08.587Z,31.00
2022-11-26T06:48:07.645Z,31.63
2022-11-26T06:53:08.463Z,38.47
2022-11-26T06:58:12.053Z,33.67
2022-11-26T07:03:14.311Z,36.83
2022-11-26T07:08:14.131Z,30.35
2022-11-26T07:13:14.360Z,26.27
2022-11-26T07:18:15.758Z,27.10
2022-11-26T07:23:16.393Z,31.88
2022-11-26T07:28:16.766Z,29.52
2022-11-26T07:33:15.741Z,27.50
2022-11-26T07:38:14.514Z,29.02
2022-11-26T07:43:13.371Z,37.08
2022-11-26T07:48:16.914Z,27.00
2022-11-26T07:53:16.061Z,28.83
2022-11-26T07:58:18.719Z,34.25
2022-11-26T08:03:19.204Z,33.60
2022-11-26T08:08:18.084Z,38.83
2022-11-26T08:13:16.967Z,40.95
2022-11-26T08:18:16.002Z,32.90
2022-11-26T08:23:16.360Z,38.42
2022-11-26T08:28:15.359Z,40.17
2022-11-26T08:33:14.597Z,31.90
2022-11-26T08:38:13.456Z,34.58
2022-11-26T08:43:13.790Z,32.95
2022-11-26T08:48:13.602Z,32.38
2022-11-26T08:53:12.488Z,34.40
2022-11-26T08:58:13.482Z,33.10
2022-11-26T09:03:13.772Z,34.22
2022-11-26T09:08:12.706Z,33.75
2022-11-26T09:13:11.518Z,33.63
2022-11-26T09:18:10.292Z,30.85
2022-11-26T09:23:10.925Z,38.88
2022-11-26T09:28:09.998Z,37.95
2022-11-26T09:33:09.169Z,39.63
2022-11-26T09:38:08.104Z,40.20
2022-11-26T09:43:23.428Z,34.95
2022-11-26T09:48:27.510Z,36.53
2022-11-26T09:53:31.536Z,46.67
2022-11-26T09:58:40.645Z,40.65
2022-11-26T10:03:42.456Z,39.08
2022-11-26T10:09:16.120Z,41.35
2022-11-26T10:14:32.939Z,38.30
2022-11-26T10:19:46.455Z,41.38
2022-11-26T10:24:45.708Z,42.53
2022-11-26T10:29:51.037Z,42.20
2022-11-26T10:34:52.338Z,35.58
2022-11-26T10:40:02.035Z,43.72
2022-11-26T10:45:22.897Z,37.10
2022-11-26T10:55:45.274Z,38.80
2022-11-26T11:00:55.248Z,49.70
2022-11-26T11:06:12.722Z,43.35
2022-11-26T11:11:21.463Z,42.83
2022-11-26T11:16:27.682Z,40.00
2022-11-26T11:21:31.346Z,41.20
2022-11-26T11:26:41.334Z,36.50
2022-11-26T11:31:47.946Z,40.38
2022-11-26T11:37:00.146Z,34.75
2022-11-26T11:42:00.391Z,36.45
2022-11-26T11:47:20.697Z,37.10
2022-11-26T11:52:35.563Z,36.70
2022-11-26T11:57:50.407Z,35.53
2022-11-26T12:03:28.214Z,39.97
2022-11-26T12:08:40.978Z,37.85
2022-11-26T12:13:50.139Z,34.93
2022-11-26T12:18:55.282Z,38.50
2022-11-26T12:23:59.821Z,31.45
2022-11-26T12:29:03.345Z,41.55
2022-11-26T12:34:09.420Z,32.47
2022-11-26T12:39:19.176Z,36.63
2022-11-26T12:44:25.123Z,37.33
2022-11-26T12:49:31.823Z,37.00
2022-11-26T12:54:34.884Z,36.92
2022-11-26T12:59:39.809Z,33.88
2022-11-26T13:04:40.003Z,36.92
2022-11-26T13:09:55.436Z,37.95
2022-11-26T13:14:58.050Z,52.05
2022-11-26T13:20:08.714Z,38.90
2022-11-26T13:25:40.608Z,41.72
2022-11-26T13:30:50.991Z,39.10
2022-11-26T13:36:21.346Z,38.90
2022-11-26T13:41:31.296Z,41.38
2022-11-26T13:46:32.376Z,39.85
2022-11-26T13:51:39.660Z,38.90
2022-11-26T13:56:41.355Z,37.38
2022-11-26T14:01:41.393Z,38.58
2022-11-26T14:07:16.213Z,41.90
2022-11-26T14:12:18.763Z,41.42
2022-11-26T14:17:32.503Z,42.50
2022-11-26T14:22:36.334Z,43.20
2022-11-26T14:27:40.721Z,41.00
2022-11-26T14:32:42.248Z,43.85
2022-11-26T14:37:52.427Z,44.17
2022-11-26T14:43:08.215Z,50.10
2022-11-26T14:48:16.586Z,55.42
2022-11-26T14:53:15.838Z,49.72
2022-11-26T14:58:20.501Z,43.35
2022-11-26T15:03:26.021Z,47.30
2022-11-26T15:08:27.173Z,49.22
2022-11-26T15:13:32.918Z,50.90
2022-11-26T15:18:34.330Z,48.40
2022-11-26T15:23:37.585Z,55.10
2022-11-26T15:28:41.201Z,45.70
2022-11-26T15:39:01.273Z,56.45
2022-11-26T15:44:01.975Z,49.92
2022-11-26T15:49:03.877Z,52.72
2022-11-26T15:54:03.532Z,53.13
2022-11-26T15:59:15.117Z,59.90
2022-11-26T16:04:46.331Z,64.28
2022-11-26T16:09:46.423Z,65.63
2022-11-26T16:14:46.605Z,69.85
2022-11-26T16:19:50.319Z,82.05
2022-11-26T16:25:02.693Z,73.10
2022-11-26T16:30:16.390Z,82.70
2022-11-26T16:35:44.133Z,88.47
2022-11-26T16:40:37.000Z,84.07
2022-11-26T16:45:37.553Z,81.55
2022-11-26T16:50:36.279Z,73.43
2022-11-26T16:55:35.088Z,76.57
2022-11-26T17:00:34.827Z,62.05
2022-11-26T17:05:37.171Z,66.32
2022-11-26T17:10:35.977Z,72.32
2022-11-26T17:15:34.965Z,198.02
2022-11-26T17:20:35.224Z,114.55
2022-11-26T17:25:34.286Z,52.33
2022-11-26T17:30:35.251Z,58.10
2022-11-26T17:35:35.858Z,110.88
2022-11-26T17:40:34.655Z,72.65
2022-11-26T17:45:33.473Z,57.92
2022-11-26T17:50:34.006Z,53.28
2022-11-26T17:55:35.638Z,47.33
2022-11-26T18:00:34.448Z,53.90
2022-11-26T18:05:35.785Z,62.58
2022-11-26T18:10:41.146Z,51.15
2022-11-26T18:15:40.007Z,45.00
2022-11-26T18:20:38.873Z,71.88
2022-11-26T18:25:39.163Z,75.40
2022-11-26T18:30:38.432Z,63.05
2022-11-26T18:35:48.308Z,72.40
2022-11-26T18:40:59.332Z,61.42
2022-11-26T18:46:00.451Z,63.95
2022-11-26T18:51:00.154Z,65.88
2022-11-26T18:56:00.394Z,72.53
2022-11-26T19:00:59.399Z,69.35
2022-11-26T19:06:05.453Z,117.22
2022-11-26T19:11:10.618Z,64.13
2022-11-26T19:16:15.819Z,91.70
2022-11-26T19:21:19.840Z,111.28
2022-11-26T19:26:20.467Z,60.88
2022-11-26T19:31:21.454Z,56.03
2022-11-26T19:36:20.827Z,54.03
2022-11-26T19:41:25.395Z,59.55
2022-11-26T19:46:26.605Z,59.63
2022-11-26T19:51:27.890Z,87.85
2022-11-26T19:56:30.570Z,48.22
2022-11-26T20:01:32.002Z,83.00
2022-11-26T20:06:35.383Z,53.03
2022-11-26T20:17:28.694Z,42.92
2022-11-26T20:22:33.965Z,131.32
2022-11-26T20:27:34.433Z,84.47
2022-11-26T20:32:33.213Z,57.17
2022-11-26T20:37:34.803Z,65.70
2022-11-26T20:42:35.405Z,57.13
2022-11-26T20:47:34.507Z,59.10
2022-11-26T20:52:33.750Z,53.97
2022-11-26T20:57:33.730Z,53.58
2022-11-26T21:02:34.405Z,60.40
2022-11-26T21:07:33.356Z,52.13
2022-11-26T21:12:32.223Z,51.80
2022-11-26T21:17:31.129Z,52.50
2022-11-26T21:22:31.585Z,73.60
2022-11-26T21:27:32.117Z,56.08
2022-11-26T21:32:31.068Z,42.72
2022-11-26T21:37:31.225Z,87.75
2022-11-26T21:42:31.063Z,62.22
2022-11-26T21:47:31.566Z,52.50
2022-11-26T21:52:31.838Z,63.63
2022-11-26T21:57:32.221Z,50.20
2022-11-26T22:07:45.646Z,50.13
2022-11-26T22:12:49.432Z,55.05
2022-11-26T22:17:48.299Z,56.72
2022-11-26T22:22:48.554Z,41.38
2022-11-26T22:27:47.444Z,36.88
2022-11-26T22:32:46.392Z,40.28
2022-11-26T22:37:45.154Z,37.60
2022-11-26T22:42:45.333Z,39.42
2022-11-26T22:47:48.528Z,42.53
2022-11-26T22:52:52.322Z,26.52
2022-11-26T22:57:53.477Z,34.60
2022-11-26T23:02:52.576Z,31.70
2022-11-26T23:07:51.503Z,27.77
2022-11-26T23:12:50.379Z,26.58
2022-11-26T23:17:51.133Z,27.25
2022-11-26T23:22:50.110Z,24.48
2022-11-26T23:27:49.235Z,17.48
2022-11-26T23:32:48.233Z,19.02
2022-11-26T23:37:48.612Z,16.85
2022-11-26T23:42:47.517Z,15.88
2022-11-26T23:47:46.359Z,16.52
2022-11-26T23:52:45.147Z,17.42
2022-11-26T23:57:45.537Z,15.55
